createdAt,value
2019-01-10T00:02:31.250Z,1.38
2019-01-10T00:05:06.991Z,1.36
2019-01-10T00:07:38.537Z,1.34
2019-01-10T00:10:13.967Z,1.36
2019-01-10T00:12:46.057Z,1.37
2019-01-10T00:15:18.071Z,1.30
2019-01-10T00:17:50.266Z,1.34
2019-01-10T00:20:24.153Z,1.27
2019-01-10T00:22:58.163Z,1.30
2019-01-10T00:25:29.389Z,1.31
2019-01-10T00:28:02.115Z,1.31
2019-01-10T00:30:36.195Z,1.36
2019-01-10T00:33:07.781Z,1.34
2019-01-10T00:35:39.013Z,1.23
2019-01-10T00:38:11.272Z,1.23
2019-01-10T00:40:45.279Z,1.33
2019-01-10T00:43:17.356Z,1.29
2019-01-10T00:45:49.418Z,1.35
2019-01-10T00:48:24.014Z,1.35
2019-01-10T00:50:56.351Z,1.36
2019-01-10T00:53:30.227Z,1.34
2019-01-10T00:56:03.311Z,1.35
2019-01-10T00:58:38.811Z,1.35
2019-01-10T01:01:11.229Z,1.38
2019-01-10T01:03:42.554Z,1.41
2019-01-10T01:06:15.852Z,1.29
2019-01-10T01:08:53.043Z,1.27
2019-01-10T01:11:25.519Z,1.30
2019-01-10T01:13:59.534Z,1.31
2019-01-10T01:16:33.557Z,1.30
2019-01-10T01:19:07.780Z,1.32
2019-01-10T01:21:39.083Z,1.35
2019-01-10T01:24:14.124Z,1.40
2019-01-10T01:26:48.360Z,1.29
2019-01-10T01:29:22.475Z,1.22
2019-01-10T01:31:53.709Z,1.31
2019-01-10T01:34:26.573Z,1.31
2019-01-10T01:37:00.565Z,1.37
2019-01-10T01:39:36.039Z,1.33
2019-01-10T01:42:07.621Z,1.34
2019-01-10T01:44:38.923Z,1.37
2019-01-10T01:47:10.439Z,1.37
2019-01-10T01:49:42.704Z,1.36
2019-01-10T01:52:13.960Z,1.30
2019-01-10T01:54:46.649Z,1.24
2019-01-10T01:57:20.732Z,1.25
2019-01-10T01:59:56.500Z,1.23
2019-01-10T02:02:32.169Z,1.25
2019-01-10T02:05:04.698Z,1.25
2019-01-10T02:07:38.695Z,1.29
2019-01-10T02:10:23.790Z,1.23
2019-01-10T02:12:57.617Z,1.22
2019-01-10T02:15:31.786Z,1.13
2019-01-10T02:18:04.823Z,1.23
2019-01-10T02:20:36.103Z,1.17
2019-01-10T02:23:09.915Z,1.25
2019-01-10T02:25:41.709Z,1.21
2019-01-10T02:28:14.796Z,1.19
2019-01-10T02:30:49.318Z,1.18
2019-01-10T02:33:21.878Z,1.22
2019-01-10T02:35:55.823Z,1.26
2019-01-10T02:38:29.826Z,1.31
2019-01-10T02:41:02.910Z,1.27
2019-01-10T02:43:36.925Z,1.27
2019-01-10T02:46:09.908Z,1.25
2019-01-10T02:48:42.887Z,1.21
2019-01-10T02:51:14.537Z,1.26
2019-01-10T02:53:47.842Z,1.23
2019-01-10T02:56:21.851Z,1.21
2019-01-10T02:58:55.175Z,1.17
2019-01-10T03:01:28.973Z,1.15
2019-01-10T03:04:00.235Z,1.11
2019-01-10T03:06:32.875Z,1.09
2019-01-10T03:09:09.190Z,1.15
2019-01-10T03:11:42.128Z,1.15
2019-01-10T03:14:14.405Z,1.12
2019-01-10T03:16:49.628Z,1.14
2019-01-10T03:19:21.912Z,1.14
2019-01-10T03:21:57.568Z,1.08
2019-01-10T03:24:28.890Z,1.15
2019-01-10T03:27:00.160Z,1.15
2019-01-10T03:29:34.120Z,1.18
2019-01-10T03:32:07.056Z,1.22
2019-01-10T03:34:38.680Z,1.18
2019-01-10T03:37:12.461Z,1.23
2019-01-10T03:39:45.500Z,1.22
2019-01-10T03:42:17.112Z,1.22
2019-01-10T03:44:50.037Z,1.08
2019-01-10T03:47:24.093Z,1.08
2019-01-10T03:49:57.044Z,1.07
2019-01-10T03:52:31.049Z,1.10
2019-01-10T03:55:04.471Z,1.11
2019-01-10T03:57:38.147Z,1.03
2019-01-10T04:00:15.855Z,1.07
2019-01-10T04:02:48.239Z,1.09
2019-01-10T04:05:19.478Z,1.07
2019-01-10T04:07:53.274Z,1.06
2019-01-10T04:10:25.224Z,1.23
2019-01-10T04:12:57.217Z,1.12
2019-01-10T04:15:32.694Z,1.11
2019-01-10T04:18:05.138Z,1.04
2019-01-10T04:20:38.207Z,1.04
2019-01-10T04:23:09.451Z,1.09
2019-01-10T04:25:43.281Z,1.09
2019-01-10T04:28:16.357Z,1.23
2019-01-10T04:30:48.200Z,1.13
2019-01-10T04:33:21.204Z,1.09
2019-01-10T04:35:55.299Z,1.11
2019-01-10T04:38:28.317Z,1.14
2019-01-10T04:40:59.730Z,1.18
2019-01-10T04:43:33.356Z,1.18
2019-01-10T04:46:06.309Z,1.14
2019-01-10T04:48:38.882Z,1.19
2019-01-10T04:51:11.383Z,1.14
2019-01-10T04:53:46.891Z,1.09
2019-01-10T04:56:18.136Z,1.07
2019-01-10T04:58:49.933Z,1.03
2019-01-10T05:01:24.333Z,1.10
2019-01-10T05:03:58.348Z,1.14
2019-01-10T05:06:31.444Z,1.14
2019-01-10T05:09:07.486Z,1.08
2019-01-10T05:11:38.828Z,1.04
2019-01-10T05:14:16.603Z,1.02
2019-01-10T05:16:45.485Z,1.01
2019-01-10T05:19:19.472Z,0.98
2019-01-10T05:21:51.426Z,1.08
2019-01-10T05:24:23.388Z,1.00
2019-01-10T05:26:56.584Z,1.10
2019-01-10T05:29:30.545Z,1.09
2019-01-10T05:32:06.385Z,1.08
2019-01-10T05:34:38.750Z,1.05
2019-01-10T05:37:12.284Z,1.06
2019-01-10T05:39:47.629Z,0.94
2019-01-10T05:42:18.523Z,1.05
2019-01-10T05:44:52.556Z,1.03
2019-01-10T05:47:25.643Z,1.08
2019-01-10T05:50:01.261Z,1.04
2019-01-10T05:52:33.760Z,1.06
2019-01-10T05:55:09.666Z,1.09
2019-01-10T05:57:42.667Z,1.13
2019-01-10T06:00:18.898Z,1.21
2019-01-10T06:02:51.844Z,1.19
2019-01-10T06:05:25.779Z,1.11
2019-01-10T06:08:01.402Z,1.13
2019-01-10T06:10:34.699Z,1.12
2019-01-10T06:13:06.897Z,1.12
2019-01-10T06:15:39.959Z,1.06
2019-01-10T06:18:11.809Z,1.05
2019-01-10T06:20:47.556Z,1.07
2019-01-10T06:23:20.774Z,1.07
2019-01-10T06:25:52.078Z,1.09
2019-01-10T06:28:24.952Z,1.19
2019-01-10T06:30:56.204Z,1.13
2019-01-10T06:33:28.994Z,1.12
2019-01-10T06:36:00.760Z,1.07
2019-01-10T06:38:32.052Z,1.06
2019-01-10T06:41:04.933Z,1.03
2019-01-10T06:43:37.876Z,1.05
2019-01-10T06:46:09.182Z,1.01
2019-01-10T06:48:42.864Z,1.04
2019-01-10T06:51:15.959Z,1.10
2019-01-10T06:53:47.252Z,1.03
2019-01-10T06:56:20.891Z,1.07
2019-01-10T06:58:52.192Z,1.01
2019-01-10T07:01:24.902Z,1.04
2019-01-10T07:03:59.000Z,1.03
2019-01-10T07:06:33.050Z,1.04
2019-01-10T07:09:08.891Z,1.05
2019-01-10T07:11:42.999Z,1.05
2019-01-10T07:14:16.980Z,1.06
2019-01-10T07:16:53.658Z,1.05
2019-01-10T07:19:44.788Z,1.07
2019-01-10T07:22:17.346Z,1.04
2019-01-10T07:24:56.816Z,1.05
2019-01-10T07:27:29.056Z,1.08
2019-01-10T07:30:00.331Z,1.10
2019-01-10T07:32:33.334Z,1.08
2019-01-10T07:35:09.393Z,1.10
2019-01-10T07:37:48.756Z,1.11
2019-01-10T07:40:20.945Z,1.11
2019-01-10T07:42:54.832Z,1.13
2019-01-10T07:45:29.029Z,1.20
2019-01-10T07:48:01.527Z,1.19
2019-01-10T07:50:34.958Z,1.19
2019-01-10T07:53:12.386Z,1.18
2019-01-10T07:55:46.241Z,1.21
2019-01-10T07:58:19.246Z,1.22
2019-01-10T08:00:54.854Z,1.21
2019-01-10T08:03:26.196Z,1.26
2019-01-10T08:06:01.710Z,1.28
2019-01-10T08:08:34.394Z,1.30
2019-01-10T08:11:08.104Z,1.30
2019-01-10T08:13:39.700Z,1.32
2019-01-10T08:16:12.411Z,1.34
2019-01-10T08:18:47.949Z,1.35
2019-01-10T08:21:21.403Z,1.38
2019-01-10T08:23:54.434Z,1.39
2019-01-10T08:26:27.511Z,1.44
2019-01-10T08:29:01.309Z,1.47
2019-01-10T08:31:34.294Z,1.47
2019-01-10T08:34:06.362Z,1.49
2019-01-10T08:36:39.111Z,1.48
2019-01-10T08:39:12.336Z,1.51
2019-01-10T08:41:45.433Z,1.53
2019-01-10T08:44:16.742Z,1.58
2019-01-10T08:46:50.481Z,1.62
2019-01-10T08:49:23.387Z,1.60
2019-01-10T08:51:57.389Z,1.60
2019-01-10T08:54:31.590Z,1.61
2019-01-10T08:57:04.370Z,1.60
2019-01-10T08:59:35.781Z,1.61
2019-01-10T09:02:09.699Z,1.61
2019-01-10T09:04:42.424Z,1.60
2019-01-10T09:07:13.676Z,1.63
2019-01-10T09:09:45.331Z,1.63
2019-01-10T09:12:18.526Z,1.65
2019-01-10T09:14:51.651Z,1.67
2019-01-10T09:17:25.605Z,1.71
2019-01-10T09:19:56.853Z,1.76
2019-01-10T09:22:30.545Z,1.79
2019-01-10T09:25:04.917Z,1.77
2019-01-10T09:27:37.652Z,1.76
2019-01-10T09:30:17.276Z,1.79
2019-01-10T09:32:50.890Z,1.83
2019-01-10T09:35:24.727Z,1.85
2019-01-10T09:37:57.691Z,1.91
2019-01-10T09:40:31.626Z,1.96
2019-01-10T09:43:04.584Z,2.01
2019-01-10T09:45:43.340Z,2.03
2019-01-10T09:48:15.695Z,2.04
2019-01-10T09:50:48.768Z,2.06
2019-01-10T09:53:22.694Z,2.08
2019-01-10T09:55:58.339Z,2.13
2019-01-10T09:58:30.959Z,2.13
2019-01-10T10:01:03.796Z,2.16
2019-01-10T10:03:38.742Z,2.13
2019-01-10T10:06:10.821Z,2.13
2019-01-10T10:08:42.834Z,2.09
2019-01-10T10:11:15.800Z,2.06
2019-01-10T10:13:49.757Z,2.05
2019-01-10T10:16:21.358Z,2.03
2019-01-10T10:18:55.708Z,2.08
2019-01-10T10:21:27.617Z,2.06
2019-01-10T10:23:59.781Z,2.06
2019-01-10T10:26:31.905Z,2.12
2019-01-10T10:29:06.095Z,2.08
2019-01-10T10:31:39.329Z,2.06
2019-01-10T10:34:10.815Z,2.10
2019-01-10T10:36:42.951Z,2.10
2019-01-10T10:39:14.933Z,2.12
2019-01-10T10:41:46.982Z,2.10
2019-01-10T10:44:18.830Z,2.13
2019-01-10T10:46:52.005Z,2.15
2019-01-10T10:49:25.873Z,2.17
2019-01-10T10:51:57.173Z,2.19
2019-01-10T10:54:29.856Z,2.22
2019-01-10T10:57:05.457Z,2.20
2019-01-10T10:59:37.712Z,2.21
2019-01-10T11:02:11.085Z,2.19
2019-01-10T11:04:44.665Z,2.17
2019-01-10T11:07:17.981Z,2.14
2019-01-10T11:09:52.426Z,2.14
2019-01-10T11:12:25.904Z,2.08
2019-01-10T11:15:00.018Z,2.03
2019-01-10T11:17:31.295Z,2.03
2019-01-10T11:20:04.752Z,2.00
2019-01-10T11:22:37.149Z,2.00
2019-01-10T11:25:14.894Z,2.00
2019-01-10T11:27:48.095Z,1.86
2019-01-10T11:30:19.939Z,2.05
2019-01-10T11:32:54.851Z,2.03
2019-01-10T11:35:26.214Z,2.00
2019-01-10T11:37:57.441Z,2.02
2019-01-10T11:40:31.100Z,2.02
2019-01-10T11:43:02.378Z,2.00
2019-01-10T11:45:35.222Z,1.99
2019-01-10T11:48:08.310Z,1.99
2019-01-10T11:50:39.628Z,1.98
2019-01-10T11:53:12.172Z,1.98
2019-01-10T11:55:46.217Z,2.02
2019-01-10T11:58:19.319Z,2.07
2019-01-10T12:00:52.141Z,2.11
2019-01-10T12:03:23.834Z,2.10
2019-01-10T12:05:55.562Z,2.10
2019-01-10T12:08:28.386Z,2.09
2019-01-10T12:11:00.177Z,2.09
2019-01-10T12:13:32.277Z,2.04
2019-01-10T12:16:05.443Z,2.05
2019-01-10T12:18:38.481Z,2.01
2019-01-10T12:21:10.442Z,1.96
2019-01-10T12:23:43.387Z,1.91
2019-01-10T12:26:14.776Z,1.91
2019-01-10T12:28:49.461Z,1.86
2019-01-10T12:31:21.455Z,1.87
2019-01-10T12:33:55.422Z,1.89
2019-01-10T12:36:29.358Z,1.90
2019-01-10T12:39:03.579Z,1.91
2019-01-10T12:41:36.418Z,1.91
2019-01-10T12:44:10.351Z,1.93
2019-01-10T12:46:43.352Z,2.01
2019-01-10T12:49:17.445Z,1.99
2019-01-10T12:51:51.369Z,2.00
2019-01-10T12:54:22.649Z,2.12
2019-01-10T12:56:55.494Z,2.27
2019-01-10T12:59:29.501Z,2.26
2019-01-10T13:02:02.240Z,2.45
2019-01-10T13:04:36.374Z,2.47
2019-01-10T13:07:10.247Z,2.43
2019-01-10T13:09:43.477Z,2.40
2019-01-10T13:12:19.801Z,2.33
2019-01-10T13:14:51.494Z,2.27
2019-01-10T13:17:24.570Z,2.26
2019-01-10T13:19:58.657Z,2.28
2019-01-10T13:22:31.473Z,2.39
2019-01-10T13:25:06.373Z,2.30
2019-01-10T13:27:39.684Z,2.29
2019-01-10T13:30:23.995Z,2.34
2019-01-10T13:32:56.341Z,2.42
2019-01-10T13:35:29.548Z,2.48
2019-01-10T13:38:03.648Z,2.57
2019-01-10T13:40:36.641Z,2.63
2019-01-10T13:43:10.837Z,2.66
2019-01-10T13:45:46.236Z,2.71
2019-01-10T13:48:20.336Z,2.75
2019-01-10T13:50:52.117Z,2.74
2019-01-10T13:53:23.374Z,2.76
2019-01-10T13:55:54.624Z,2.75
2019-01-10T13:58:27.748Z,2.71
2019-01-10T14:01:01.789Z,2.70
2019-01-10T14:03:34.864Z,2.69
2019-01-10T14:06:10.418Z,2.64
2019-01-10T14:08:42.250Z,2.64
2019-01-10T14:11:15.923Z,2.59
2019-01-10T14:13:49.804Z,2.56
2019-01-10T14:16:22.855Z,2.47
2019-01-10T14:18:56.866Z,2.42
2019-01-10T14:21:29.995Z,2.38
2019-01-10T14:24:01.357Z,2.38
2019-01-10T14:26:34.986Z,2.30
2019-01-10T14:29:08.063Z,2.25
2019-01-10T14:31:39.706Z,2.20
2019-01-10T14:34:14.566Z,2.16
2019-01-10T14:36:46.006Z,2.10
2019-01-10T14:39:20.035Z,2.06
2019-01-10T14:41:51.384Z,2.06
2019-01-10T14:44:25.015Z,2.04
2019-01-10T14:46:58.122Z,1.97
2019-01-10T14:49:32.085Z,1.96
2019-01-10T14:52:06.210Z,1.94
2019-01-10T14:54:39.725Z,1.92
2019-01-10T14:57:11.060Z,1.92
2019-01-10T14:59:44.157Z,1.91
2019-01-10T15:02:18.172Z,1.90
2019-01-10T15:04:52.077Z,1.90
2019-01-10T15:07:26.326Z,1.87
2019-01-10T15:09:59.163Z,1.84
2019-01-10T15:12:33.028Z,1.84
2019-01-10T15:15:09.173Z,1.93
2019-01-10T15:17:40.406Z,2.03
2019-01-10T15:20:16.042Z,1.96
2019-01-10T15:22:47.467Z,1.93
2019-01-10T15:25:21.085Z,1.88
2019-01-10T15:27:56.630Z,1.86
2019-01-10T15:30:29.891Z,1.84
2019-01-10T15:33:02.192Z,1.78
2019-01-10T15:35:35.047Z,1.75
2019-01-10T15:38:06.352Z,1.68
2019-01-10T15:40:39.821Z,1.68
2019-01-10T15:43:11.243Z,1.67
2019-01-10T15:45:43.207Z,1.65
2019-01-10T15:48:15.332Z,1.61
2019-01-10T15:50:49.296Z,1.58
2019-01-10T15:53:22.188Z,1.55
2019-01-10T15:55:56.229Z,1.52
2019-01-10T15:58:27.483Z,1.51
2019-01-10T16:01:02.360Z,1.52
2019-01-10T16:03:34.221Z,1.52
2019-01-10T16:06:08.379Z,1.54
2019-01-10T16:08:39.713Z,1.57
2019-01-10T16:11:13.310Z,1.56
2019-01-10T16:13:46.477Z,1.58
2019-01-10T16:16:20.434Z,1.58
2019-01-10T16:18:54.322Z,1.56
2019-01-10T16:21:26.398Z,1.55
2019-01-10T16:24:01.064Z,1.52
2019-01-10T16:26:32.334Z,1.50
2019-01-10T16:29:05.283Z,1.49
2019-01-10T16:31:38.441Z,1.49
2019-01-10T16:34:13.938Z,1.51
2019-01-10T16:36:46.480Z,1.53
2019-01-10T16:39:19.331Z,1.55
2019-01-10T16:41:51.851Z,1.56
2019-01-10T16:44:24.400Z,1.61
2019-01-10T16:46:58.389Z,1.62
2019-01-10T16:49:31.389Z,1.56
2019-01-10T16:52:05.510Z,1.51
2019-01-10T16:54:39.577Z,1.46
2019-01-10T16:57:13.486Z,1.45
2019-01-10T16:59:47.539Z,1.42
2019-01-10T17:02:20.434Z,1.44
2019-01-10T17:04:52.674Z,1.40
2019-01-10T17:07:26.274Z,1.40
2019-01-10T17:09:57.733Z,1.40
2019-01-10T17:12:30.928Z,1.44
2019-01-10T17:15:03.715Z,1.50
2019-01-10T17:17:37.876Z,1.47
2019-01-10T17:20:14.019Z,1.48
2019-01-10T17:22:46.852Z,1.51
2019-01-10T17:25:20.693Z,1.46
2019-01-10T17:27:51.958Z,1.41
2019-01-10T17:30:32.948Z,1.38
2019-01-10T17:33:05.807Z,1.36
2019-01-10T17:35:38.806Z,1.08
2019-01-10T17:38:11.653Z,1.35
2019-01-10T17:40:43.803Z,1.40
2019-01-10T17:43:16.811Z,1.34
2019-01-10T17:45:50.139Z,1.34
2019-01-10T17:48:23.893Z,1.31
2019-01-10T17:51:01.026Z,1.27
2019-01-10T17:53:34.779Z,1.24
2019-01-10T17:56:08.908Z,1.19
2019-01-10T17:58:40.171Z,1.18
2019-01-10T18:01:12.836Z,1.18
2019-01-10T18:03:46.119Z,1.19
2019-01-10T18:06:17.349Z,1.18
2019-01-10T18:08:50.870Z,1.18
2019-01-10T18:11:24.935Z,1.18
2019-01-10T18:13:57.849Z,1.23
2019-01-10T18:16:29.891Z,1.23
2019-01-10T18:19:01.890Z,1.27
2019-01-10T18:21:35.883Z,1.44
2019-01-10T18:24:09.040Z,1.45
2019-01-10T18:26:40.375Z,1.44
2019-01-10T18:29:13.180Z,1.47
2019-01-10T18:31:45.907Z,1.49
2019-01-10T18:34:20.018Z,1.53
2019-01-10T18:36:52.114Z,1.45
2019-01-10T18:39:24.095Z,1.43
2019-01-10T18:41:58.043Z,1.41
2019-01-10T18:44:31.110Z,1.37
2019-01-10T18:47:04.006Z,1.32
2019-01-10T18:49:36.145Z,1.33
2019-01-10T18:52:10.096Z,1.31
2019-01-10T18:54:42.585Z,1.33
2019-01-10T18:57:16.278Z,1.28
2019-01-10T18:59:50.099Z,1.25
2019-01-10T19:02:23.248Z,1.19
2019-01-10T19:04:55.053Z,1.21
2019-01-10T19:07:28.006Z,1.23
2019-01-10T19:09:59.509Z,1.23
2019-01-10T19:12:31.968Z,1.22
2019-01-10T19:15:05.834Z,1.37
2019-01-10T19:17:39.151Z,1.34
2019-01-10T19:20:15.335Z,1.33
2019-01-10T19:22:49.120Z,1.30
2019-01-10T19:25:20.389Z,1.29
2019-01-10T19:27:54.202Z,1.28
2019-01-10T19:30:33.539Z,1.30
2019-01-10T19:33:07.772Z,1.28
2019-01-10T19:35:39.960Z,1.36
2019-01-10T19:38:12.187Z,1.37
2019-01-10T19:40:43.430Z,1.35
2019-01-10T19:43:16.250Z,1.42
2019-01-10T19:45:50.209Z,1.47
2019-01-10T19:48:24.207Z,1.36
2019-01-10T19:50:57.227Z,1.35
2019-01-10T19:53:30.280Z,1.31
2019-01-10T19:56:04.804Z,1.27
2019-01-10T19:58:40.017Z,1.31
2019-01-10T20:01:11.485Z,1.30
2019-01-10T20:03:43.282Z,1.29
2019-01-10T20:06:15.567Z,1.22
2019-01-10T20:08:49.525Z,1.27
2019-01-10T20:11:22.435Z,1.28
2019-01-10T20:13:54.785Z,1.28
2019-01-10T20:16:27.401Z,1.18
2019-01-10T20:19:00.448Z,1.11
2019-01-10T20:21:34.471Z,1.07
2019-01-10T20:24:08.483Z,1.01
2019-01-10T20:26:39.928Z,1.00
2019-01-10T20:29:14.241Z,0.97
2019-01-10T20:31:47.542Z,1.00
2019-01-10T20:34:20.556Z,0.96
2019-01-10T20:36:52.487Z,0.92
2019-01-10T20:39:24.564Z,0.89
2019-01-10T20:42:01.671Z,0.87
2019-01-10T20:44:29.574Z,0.92
2019-01-10T20:47:02.503Z,0.98
2019-01-10T20:49:33.766Z,0.95
2019-01-10T20:52:07.718Z,0.91
2019-01-10T20:54:40.217Z,0.89
2019-01-10T20:57:11.812Z,0.88
2019-01-10T20:59:43.636Z,0.80
2019-01-10T21:02:15.591Z,0.84
2019-01-10T21:04:48.698Z,0.90
2019-01-10T21:07:20.175Z,0.90
2019-01-10T21:09:53.620Z,0.86
2019-01-10T21:12:26.569Z,0.85
2019-01-10T21:15:00.628Z,0.95
2019-01-10T21:17:33.675Z,0.93
2019-01-10T21:20:05.485Z,0.91
2019-01-10T21:22:38.691Z,0.85
2019-01-10T21:25:12.633Z,0.84
2019-01-10T21:27:46.603Z,0.81
2019-01-10T21:30:20.583Z,0.77
2019-01-10T21:32:52.884Z,0.72
2019-01-10T21:35:24.184Z,0.70
2019-01-10T21:37:57.733Z,0.66
2019-01-10T21:40:31.982Z,0.64
2019-01-10T21:43:04.700Z,0.62
2019-01-10T21:45:38.923Z,0.62
2019-01-10T21:48:12.765Z,0.62
2019-01-10T21:50:43.995Z,0.57
2019-01-10T21:53:19.357Z,0.52
2019-01-10T21:55:50.765Z,0.49
2019-01-10T21:58:24.761Z,0.44
2019-01-10T22:00:57.794Z,0.42
2019-01-10T22:03:30.770Z,0.38
2019-01-10T22:06:02.465Z,0.33
2019-01-10T22:08:35.812Z,0.31
2019-01-10T22:11:10.429Z,0.27
2019-01-10T22:13:43.859Z,0.24
2019-01-10T22:16:16.853Z,0.22
2019-01-10T22:18:49.828Z,0.17
2019-01-10T22:21:21.055Z,0.13
2019-01-10T22:23:53.932Z,0.11
2019-01-10T22:26:25.316Z,0.08
2019-01-10T22:28:58.993Z,0.07
2019-01-10T22:31:32.993Z,0.08
2019-01-10T22:34:06.036Z,0.05
2019-01-10T22:36:40.565Z,0.02
2019-01-10T22:39:14.015Z,-0.02
2019-01-10T22:41:47.021Z,-0.07
2019-01-10T22:44:21.100Z,-0.09
2019-01-10T22:46:54.960Z,-0.11
2019-01-10T22:49:28.152Z,-0.13
2019-01-10T22:51:59.394Z,-0.14
2019-01-10T22:54:30.935Z,-0.11
2019-01-10T22:57:03.122Z,-0.07
2019-01-10T22:59:37.170Z,-0.04
2019-01-10T23:02:11.290Z,0.00
2019-01-10T23:04:44.173Z,0.04
2019-01-10T23:07:21.758Z,0.05
2019-01-10T23:10:07.823Z,-0.02
2019-01-10T23:12:40.753Z,-0.05
2019-01-10T23:15:35.537Z,-0.09
2019-01-10T23:18:09.491Z,-0.07
2019-01-10T23:20:40.822Z,-0.07
2019-01-10T23:23:13.308Z,-0.09
2019-01-10T23:25:47.629Z,-0.18
2019-01-10T23:28:20.184Z,-0.26
2019-01-10T23:30:55.859Z,-0.33
2019-01-10T23:33:27.331Z,-0.30
2019-01-10T23:36:03.309Z,-0.39
2019-01-10T23:38:34.526Z,-0.46
2019-01-10T23:41:05.794Z,-0.53
2019-01-10T23:43:39.229Z,-0.46
2019-01-10T23:46:14.723Z,-0.47
2019-01-10T23:48:47.358Z,-0.40
2019-01-10T23:51:20.368Z,-0.54
2019-01-10T23:53:52.443Z,-0.66
2019-01-10T23:56:24.396Z,-0.73
2019-01-10T23:58:58.383Z,-0.65
